KHQZ

Mesquite Metro Airport

Mesquite, Texas, USA
METAR KHQZ 230300Z AUTO 11005KT 10SM CLR 24/18 A2997 RMK AO1 T02360184
Observed Flight Rules
May-23 @ 03:00 UTC (14 minutes ago) Visual Flight Rules
Wind Visibility Clouds
110° at 5 knots 10 miles
  • Clear skies
Temperatures Readings
Current 24°C / 75°F
Dewpoint 18°C / 64°F
Humidity 69%
Altimeter 29.97" Hg
Pressure 1015 hPa
Elevation 136
METAR KHQZ 230300Z AUTO 11005KT 10SM CLR 24/18 A2997 RMK AO1 T02360184
Observed Flight Rules
May-23 @ 03:00 UTC
(14 minutes ago)
VFR
Wind Visibility
110° at 5 knots 10 miles
Clouds
  • Clear skies
Temperature Dewpoint
24°C / 75°F 18°C / 64°F
Humidity Altimeter Pressure
69% 29.97" Hg 1015 hPa